Terminal Aerodrome Forecast
Issued by NWS North Platte, NE

Home | Current Version | Previous Version | Text Only | Print | Product List | Glossary On
Versions: 1 2 3 4 5 6 7 8 9 10 11 12 13 14 15 16 17
000
FTUS43 KLBF 270500
TAFLBF
TAF
KLBF 270520Z 2706/2806 VRB03KT P6SM BKN200
     FM271200 15008KT P6SM SCT050 BKN090
     FM271700 18012G17KT P6SM BKN050 OVC090
      TEMPO 2717/2721 -TSRA BKN050CB
     FM272200 16013G19KT P6SM SCT070 BKN200
     FM280100 13006KT P6SM SCT200=

USA.gov is the U.S. government's official web portal to all federal, state and local government web resources and services.